createdAt,value
2023-04-04T22:14:13.391Z,72.53
2023-04-04T22:16:43.723Z,73.03
2023-04-04T22:19:12.172Z,66.53
2023-04-04T22:24:27.817Z,79.82
2023-04-04T22:26:56.102Z,70.00
2023-04-04T22:29:24.492Z,56.63
2023-04-04T22:31:52.689Z,59.97
2023-04-04T22:34:21.217Z,62.30
2023-04-04T22:36:49.521Z,79.13
2023-04-04T22:39:17.918Z,71.15
2023-04-04T22:41:45.979Z,89.78
2023-04-04T22:44:14.228Z,58.30
2023-04-04T22:46:42.532Z,81.85
2023-04-04T22:49:10.871Z,78.07
2023-04-04T22:51:39.290Z,131.07
2023-04-04T22:54:07.563Z,161.95
2023-04-04T22:56:35.817Z,186.93
2023-04-04T22:59:04.312Z,94.80
2023-04-04T23:01:32.523Z,107.90
2023-04-04T23:04:00.909Z,96.78
2023-04-04T23:06:29.184Z,143.32
2023-04-04T23:08:57.518Z,126.85
2023-04-04T23:11:26.156Z,85.75
2023-04-04T23:13:54.334Z,117.07
2023-04-04T23:16:22.754Z,124.95
2023-04-04T23:18:50.924Z,102.93
2023-04-04T23:21:19.285Z,88.85
2023-04-04T23:23:47.514Z,86.53
2023-04-04T23:26:15.608Z,314.23
2023-04-04T23:28:43.967Z,207.63
2023-04-04T23:31:12.247Z,214.48
2023-04-04T23:33:40.533Z,215.88
2023-04-04T23:36:09.306Z,155.13
2023-04-04T23:38:37.620Z,102.65
2023-04-04T23:41:06.004Z,102.10
2023-04-04T23:43:34.425Z,105.45
2023-04-04T23:46:03.592Z,89.47
2023-04-04T23:48:32.545Z,72.05
2023-04-04T23:51:00.698Z,64.85
2023-04-04T23:53:29.328Z,57.15
2023-04-04T23:55:57.654Z,72.18
2023-04-04T23:58:25.839Z,87.20
